Moose Pass, AK (99631)

8:16 AM AKST on December 04, 2016 (GMT -0900)
AKDOT | | Change Station

Elev 1358 ft 60.64 °N, 149.50 °W | Updated 56 minutes ago

Partly Cloudy
Partly Cloudy
4 °F
Feels Like 4 °F
N
0
Wind Variable Wind from NNE
Gusts 5.0 mph

Today
High -- | Low -- °F
--% Chance of Precip.
Yesterday
High -- | Low -- °F
Precip. -- in
Pressure 30.14 in
Visibility 10.0 miles
Clouds Few 11000 ft
Windchill 4 °F
Dew Point -1 °F
Humidity 81%
Rainfall in
Snow Depth Not available.
9:44 AM 3:51 PM
Waxing Crescent, 24% visible
METAR PAWD 041653Z AUTO 01023G35KT 10SM FEW110 M09/M18 A3014 RMK AO2 PK WND 01036/1613 SLP207 T10941183 TSNO
Pressure 30.14 in
Visibility 10.0 miles
Clouds Few 11000 ft
Windchill 4 °F
Dew Point -1 °F
Humidity 81%
Rainfall in
Snow Depth Not available.
9:44 AM 3:51 PM
Waxing Crescent, 24% visible
METAR PAWD 041653Z AUTO 01023G35KT 10SM FEW110 M09/M18 A3014 RMK AO2 PK WND 01036/1613 SLP207 T10941183 TSNO

10-Day Weather Forecast

Almanac

Astronomy

Dec. 04, 2016 Rise Set
Actual Time
Civil Twilight
Nautical Twilight
Astronomical Twilight
Moon
Length of Visible Light
Length of Day
Tomorrow will be .
, % of the Moon is Illuminated

Today's Extremes

State Highs State Lows

Community

WunderPhotos

Upload Photos

1,955,631 photos uploaded!

WunderBlog® & News

Nearby

Air Quality

  Air Quality AQ Index Pollutant
Not available.

Snow Depth

Station Depth Elevation

Earthquake Activity

City Distance Mag. Time & Date
Minimum magnitude displayed is 2.5.

Coastal Water Temperatures

Place Temperature

Stations

Nearby Weather Stations

Station Location Temp. Windchill Dew Point Humidity Wind Precip. Elev Updated Type
                   

Watches & Warnings

There are currently no watches in effect.